sensor_id;sensor_type;location;lat;lon;timestamp;pressure;altitude;pressure_sealevel;temperature;humidity
67015;BME280;1033;52.560;13.374;2023-06-22T00:01:09;101364.00;;;20.26;86.90
67015;BME280;1033;52.560;13.374;2023-06-22T00:03:42;101363.31;;;20.35;86.32
67015;BME280;1033;52.560;13.374;2023-06-22T00:06:12;101365.63;;;20.44;86.48
67015;BME280;1033;52.560;13.374;2023-06-22T00:08:41;101358.81;;;20.29;85.85
67015;BME280;1033;52.560;13.374;2023-06-22T00:11:11;101362.75;;;20.33;86.92
67015;BME280;1033;52.560;13.374;2023-06-22T00:13:40;101371.78;;;20.12;86.40
67015;BME280;1033;52.560;13.374;2023-06-22T00:16:09;101362.19;;;20.15;86.28
67015;BME280;1033;52.560;13.374;2023-06-22T00:18:38;101374.72;;;20.06;86.54
67015;BME280;1033;52.560;13.374;2023-06-22T00:21:08;101374.25;;;19.92;87.61
67015;BME280;1033;52.560;13.374;2023-06-22T00:23:40;101384.16;;;19.93;88.25
67015;BME280;1033;52.560;13.374;2023-06-22T00:26:09;101390.94;;;20.07;86.85
67015;BME280;1033;52.560;13.374;2023-06-22T00:28:39;101394.69;;;20.18;87.91
67015;BME280;1033;52.560;13.374;2023-06-22T00:31:08;101398.25;;;20.18;88.20
67015;BME280;1033;52.560;13.374;2023-06-22T00:33:37;101390.94;;;20.07;88.05
67015;BME280;1033;52.560;13.374;2023-06-22T00:36:08;101388.06;;;19.97;87.95
67015;BME280;1033;52.560;13.374;2023-06-22T00:38:41;101391.56;;;19.92;88.09
67015;BME280;1033;52.560;13.374;2023-06-22T00:41:09;101391.88;;;19.96;89.20
67015;BME280;1033;52.560;13.374;2023-06-22T00:43:38;101394.69;;;20.01;89.25
67015;BME280;1033;52.560;13.374;2023-06-22T00:46:08;101400.03;;;20.08;88.60
67015;BME280;1033;52.560;13.374;2023-06-22T00:48:38;101392.69;;;20.13;87.75
67015;BME280;1033;52.560;13.374;2023-06-22T00:51:11;101392.41;;;19.76;89.43
67015;BME280;1033;52.560;13.374;2023-06-22T00:53:40;101394.59;;;19.74;90.08
67015;BME280;1033;52.560;13.374;2023-06-22T00:56:11;101395.09;;;19.55;90.27
67015;BME280;1033;52.560;13.374;2023-06-22T00:58:41;101391.00;;;19.74;90.47
67015;BME280;1033;52.560;13.374;2023-06-22T01:01:10;101391.66;;;19.64;90.34
67015;BME280;1033;52.560;13.374;2023-06-22T01:03:39;101405.22;;;19.87;89.88
67015;BME280;1033;52.560;13.374;2023-06-22T01:06:13;101405.81;;;19.73;90.52
67015;BME280;1033;52.560;13.374;2023-06-22T01:08:48;101400.47;;;19.83;90.23
67015;BME280;1033;52.560;13.374;2023-06-22T01:11:22;101397.41;;;19.63;91.81
67015;BME280;1033;52.560;13.374;2023-06-22T01:14:00;101408.22;;;19.52;91.70
67015;BME280;1033;52.560;13.374;2023-06-22T01:16:35;101410.47;;;19.72;92.12
67015;BME280;1033;52.560;13.374;2023-06-22T01:19:16;101408.22;;;19.52;92.33
67015;BME280;1033;52.560;13.374;2023-06-22T01:21:52;101405.38;;;19.47;92.17
67015;BME280;1033;52.560;13.374;2023-06-22T01:24:26;101406.75;;;19.33;93.21
67015;BME280;1033;52.560;13.374;2023-06-22T01:27:04;101408.34;;;19.29;93.40
67015;BME280;1033;52.560;13.374;2023-06-22T01:29:39;101402.34;;;19.32;93.54
67015;BME280;1033;52.560;13.374;2023-06-22T01:32:10;101403.81;;;19.23;93.79
67015;BME280;1033;52.560;13.374;2023-06-22T01:34:41;101409.81;;;19.20;94.44
67015;BME280;1033;52.560;13.374;2023-06-22T01:37:11;101413.63;;;19.19;94.26
67015;BME280;1033;52.560;13.374;2023-06-22T01:39:41;101407.97;;;19.09;95.11
67015;BME280;1033;52.560;13.374;2023-06-22T01:42:11;101420.59;;;19.10;95.08
67015;BME280;1033;52.560;13.374;2023-06-22T01:44:42;101423.00;;;19.06;95.51
67015;BME280;1033;52.560;13.374;2023-06-22T01:47:13;101421.34;;;19.05;95.39
67015;BME280;1033;52.560;13.374;2023-06-22T01:49:44;101419.22;;;18.96;96.36
67015;BME280;1033;52.560;13.374;2023-06-22T01:52:13;101421.88;;;18.91;97.17
67015;BME280;1033;52.560;13.374;2023-06-22T01:54:42;101418.50;;;19.00;97.46
67015;BME280;1033;52.560;13.374;2023-06-22T01:57:12;101421.47;;;18.99;97.30
67015;BME280;1033;52.560;13.374;2023-06-22T01:59:48;101418.81;;;19.04;96.43
67015;BME280;1033;52.560;13.374;2023-06-22T02:02:21;101420.41;;;19.00;97.33
67015;BME280;1033;52.560;13.374;2023-06-22T02:05:01;101417.69;;;18.88;97.46
67015;BME280;1033;52.560;13.374;2023-06-22T02:07:46;101419.91;;;19.03;97.49
67015;BME280;1033;52.560;13.374;2023-06-22T02:10:20;101423.16;;;19.00;96.98
67015;BME280;1033;52.560;13.374;2023-06-22T02:12:51;101427.84;;;18.88;97.88
67015;BME280;1033;52.560;13.374;2023-06-22T02:15:21;101424.19;;;18.82;98.51
67015;BME280;1033;52.560;13.374;2023-06-22T02:17:54;101428.31;;;18.85;98.77
67015;BME280;1033;52.560;13.374;2023-06-22T02:20:24;101430.13;;;18.79;98.95
67015;BME280;1033;52.560;13.374;2023-06-22T02:22:56;101426.59;;;19.07;100.00
67015;BME280;1033;52.560;13.374;2023-06-22T02:25:25;101428.22;;;19.08;98.33
67015;BME280;1033;52.560;13.374;2023-06-22T02:27:54;101435.91;;;19.23;96.51
67015;BME280;1033;52.560;13.374;2023-06-22T02:30:24;101440.69;;;18.99;97.79
67015;BME280;1033;52.560;13.374;2023-06-22T02:32:54;101446.03;;;19.05;98.25
67015;BME280;1033;52.560;13.374;2023-06-22T02:35:27;101441.16;;;19.24;97.80
67015;BME280;1033;52.560;13.374;2023-06-22T02:37:59;101448.59;;;19.40;96.55
67015;BME280;1033;52.560;13.374;2023-06-22T02:40:29;101444.78;;;19.13;97.79
67015;BME280;1033;52.560;13.374;2023-06-22T02:42:58;101438.38;;;19.07;98.62
67015;BME280;1033;52.560;13.374;2023-06-22T02:45:32;101443.31;;;19.22;97.69
67015;BME280;1033;52.560;13.374;2023-06-22T02:48:01;101448.88;;;19.27;96.57
67015;BME280;1033;52.560;13.374;2023-06-22T02:50:30;101445.41;;;19.32;96.43
67015;BME280;1033;52.560;13.374;2023-06-22T02:53:00;101441.94;;;19.36;96.28
67015;BME280;1033;52.560;13.374;2023-06-22T02:55:32;101435.53;;;19.31;96.81
67015;BME280;1033;52.560;13.374;2023-06-22T02:58:01;101425.81;;;19.40;96.57
67015;BME280;1033;52.560;13.374;2023-06-22T03:00:36;101420.00;;;19.36;96.64
67015;BME280;1033;52.560;13.374;2023-06-22T03:03:07;101429.88;;;19.37;97.10
67015;BME280;1033;52.560;13.374;2023-06-22T03:05:36;101417.97;;;19.32;97.41
67015;BME280;1033;52.560;13.374;2023-06-22T03:08:05;101408.94;;;19.31;97.67
67015;BME280;1033;52.560;13.374;2023-06-22T03:10:35;101412.00;;;19.35;97.56
67015;BME280;1033;52.560;13.374;2023-06-22T03:13:04;101414.00;;;19.39;97.77
67015;BME280;1033;52.560;13.374;2023-06-22T03:15:33;101416.03;;;19.44;97.81
67015;BME280;1033;52.560;13.374;2023-06-22T03:18:04;101415.03;;;19.50;97.72
67015;BME280;1033;52.560;13.374;2023-06-22T03:20:33;101408.72;;;19.49;97.97
67015;BME280;1033;52.560;13.374;2023-06-22T03:23:02;101405.56;;;19.58;97.09
67015;BME280;1033;52.560;13.374;2023-06-22T03:25:33;101410.53;;;19.61;96.60
67015;BME280;1033;52.560;13.374;2023-06-22T03:28:02;101412.19;;;19.62;96.48
67015;BME280;1033;52.560;13.374;2023-06-22T03:30:31;101405.63;;;19.63;95.97
67015;BME280;1033;52.560;13.374;2023-06-22T03:33:01;101406.47;;;19.63;95.34
67015;BME280;1033;52.560;13.374;2023-06-22T03:35:31;101409.91;;;19.70;94.71
67015;BME280;1033;52.560;13.374;2023-06-22T03:38:00;101417.13;;;19.76;94.35
67015;BME280;1033;52.560;13.374;2023-06-22T03:40:31;101426.31;;;20.20;91.08
67015;BME280;1033;52.560;13.374;2023-06-22T03:43:00;101415.50;;;20.52;89.12
67015;BME280;1033;52.560;13.374;2023-06-22T03:45:30;101411.63;;;21.18;85.47
67015;BME280;1033;52.560;13.374;2023-06-22T03:47:59;101411.09;;;21.48;81.83
67015;BME280;1033;52.560;13.374;2023-06-22T03:50:29;101403.66;;;21.86;80.25
67015;BME280;1033;52.560;13.374;2023-06-22T03:53:00;101406.34;;;22.13;77.12
67015;BME280;1033;52.560;13.374;2023-06-22T03:55:29;101406.78;;;22.36;75.71
67015;BME280;1033;52.560;13.374;2023-06-22T03:57:58;101407.56;;;22.37;74.40
67015;BME280;1033;52.560;13.374;2023-06-22T04:00:33;101405.31;;;22.24;74.41
67015;BME280;1033;52.560;13.374;2023-06-22T04:03:02;101404.00;;;22.36;73.34
67015;BME280;1033;52.560;13.374;2023-06-22T04:05:31;101413.63;;;22.96;71.25
67015;BME280;1033;52.560;13.374;2023-06-22T04:08:01;101418.66;;;23.19;68.81
67015;BME280;1033;52.560;13.374;2023-06-22T04:10:30;101416.53;;;23.47;67.40
67015;BME280;1033;52.560;13.374;2023-06-22T04:13:00;101418.97;;;24.24;65.34
67015;BME280;1033;52.560;13.374;2023-06-22T04:15:29;101420.63;;;24.25;63.61
67015;BME280;1033;52.560;13.374;2023-06-22T04:17:58;101425.31;;;24.30;63.52
67015;BME280;1033;52.560;13.374;2023-06-22T04:20:27;101427.19;;;24.54;62.83
67015;BME280;1033;52.560;13.374;2023-06-22T04:22:56;101425.38;;;24.79;61.87
67015;BME280;1033;52.560;13.374;2023-06-22T04:25:27;101431.78;;;24.74;62.05
67015;BME280;1033;52.560;13.374;2023-06-22T04:27:56;101434.72;;;25.03;61.34
67015;BME280;1033;52.560;13.374;2023-06-22T04:30:25;101435.78;;;25.51;59.09
67015;BME280;1033;52.560;13.374;2023-06-22T04:32:55;101438.25;;;25.52;58.53
67015;BME280;1033;52.560;13.374;2023-06-22T04:35:26;101445.28;;;25.40;59.53
67015;BME280;1033;52.560;13.374;2023-06-22T04:37:58;101449.16;;;25.39;58.74
67015;BME280;1033;52.560;13.374;2023-06-22T04:40:29;101447.91;;;25.21;59.71
67015;BME280;1033;52.560;13.374;2023-06-22T04:42:58;101451.16;;;25.72;57.89
67015;BME280;1033;52.560;13.374;2023-06-22T04:45:30;101449.19;;;26.07;56.71
67015;BME280;1033;52.560;13.374;2023-06-22T04:47:58;101454.41;;;26.13;57.04
67015;BME280;1033;52.560;13.374;2023-06-22T04:50:28;101447.47;;;26.63;55.11
67015;BME280;1033;52.560;13.374;2023-06-22T04:52:57;101450.72;;;26.94;54.12
67015;BME280;1033;52.560;13.374;2023-06-22T04:55:28;101460.06;;;27.22;52.75
67015;BME280;1033;52.560;13.374;2023-06-22T04:57:57;101458.50;;;27.35;52.73
67015;BME280;1033;52.560;13.374;2023-06-22T05:00:32;101455.78;;;27.67;51.23
67015;BME280;1033;52.560;13.374;2023-06-22T05:03:04;101453.44;;;27.74;50.81
67015;BME280;1033;52.560;13.374;2023-06-22T05:05:46;101452.06;;;26.73;52.94
67015;BME280;1033;52.560;13.374;2023-06-22T05:08:15;101456.75;;;26.54;53.43
67015;BME280;1033;52.560;13.374;2023-06-22T05:10:46;101451.94;;;26.83;51.80
67015;BME280;1033;52.560;13.374;2023-06-22T05:13:32;101444.53;;;27.40;50.67
67015;BME280;1033;52.560;13.374;2023-06-22T05:16:01;101452.97;;;28.18;47.91
67015;BME280;1033;52.560;13.374;2023-06-22T05:18:30;101452.19;;;28.45;46.56
67015;BME280;1033;52.560;13.374;2023-06-22T05:21:00;101448.63;;;26.62;50.27
67015;BME280;1033;52.560;13.374;2023-06-22T05:23:29;101448.78;;;25.61;53.43
67015;BME280;1033;52.560;13.374;2023-06-22T05:26:02;101450.38;;;25.67;52.69
67015;BME280;1033;52.560;13.374;2023-06-22T05:28:31;101454.03;;;26.49;50.44
67015;BME280;1033;52.560;13.374;2023-06-22T05:31:01;101459.28;;;26.74;49.28
67015;BME280;1033;52.560;13.374;2023-06-22T05:33:31;101465.19;;;25.47;52.13
67015;BME280;1033;52.560;13.374;2023-06-22T05:36:01;101455.00;;;25.76;51.61
67015;BME280;1033;52.560;13.374;2023-06-22T05:38:30;101450.53;;;24.97;53.39
67015;BME280;1033;52.560;13.374;2023-06-22T05:41:00;101456.53;;;24.35;55.08
67015;BME280;1033;52.560;13.374;2023-06-22T05:43:29;101465.16;;;24.18;54.72
67015;BME280;1033;52.560;13.374;2023-06-22T05:46:00;101457.41;;;23.90;55.38
67015;BME280;1033;52.560;13.374;2023-06-22T05:48:30;101460.44;;;24.24;54.80
67015;BME280;1033;52.560;13.374;2023-06-22T05:51:00;101476.47;;;24.37;54.02
67015;BME280;1033;52.560;13.374;2023-06-22T05:53:29;101484.75;;;24.42;55.11
67015;BME280;1033;52.560;13.374;2023-06-22T05:55:59;101485.81;;;24.56;52.87
67015;BME280;1033;52.560;13.374;2023-06-22T05:58:28;101486.38;;;24.58;52.77
67015;BME280;1033;52.560;13.374;2023-06-22T06:00:57;101484.13;;;24.65;53.24
67015;BME280;1033;52.560;13.374;2023-06-22T06:03:28;101485.78;;;24.72;53.07
67015;BME280;1033;52.560;13.374;2023-06-22T06:05:57;101487.31;;;25.03;52.30
67015;BME280;1033;52.560;13.374;2023-06-22T06:08:26;101483.44;;;25.04;51.97
67015;BME280;1033;52.560;13.374;2023-06-22T06:10:55;101486.22;;;24.99;52.45
67015;BME280;1033;52.560;13.374;2023-06-22T06:13:43;101491.88;;;24.74;52.57
67015;BME280;1033;52.560;13.374;2023-06-22T06:16:13;101486.84;;;24.76;53.33
67015;BME280;1033;52.560;13.374;2023-06-22T06:18:46;101480.47;;;24.90;53.01
67015;BME280;1033;52.560;13.374;2023-06-22T06:21:17;101463.22;;;25.03;52.28
67015;BME280;1033;52.560;13.374;2023-06-22T06:23:47;101475.25;;;24.74;53.47
67015;BME280;1033;52.560;13.374;2023-06-22T06:26:17;101475.28;;;24.68;53.63
67015;BME280;1033;52.560;13.374;2023-06-22T06:28:47;101469.81;;;24.38;54.05
67015;BME280;1033;52.560;13.374;2023-06-22T06:31:16;101475.09;;;24.30;54.48
67015;BME280;1033;52.560;13.374;2023-06-22T06:33:48;101468.41;;;24.51;54.03
67015;BME280;1033;52.560;13.374;2023-06-22T06:36:19;101484.63;;;24.88;53.92
67015;BME280;1033;52.560;13.374;2023-06-22T06:38:50;101480.22;;;24.72;53.70
67015;BME280;1033;52.560;13.374;2023-06-22T06:41:19;101480.28;;;24.61;53.99
67015;BME280;1033;52.560;13.374;2023-06-22T06:43:51;101491.28;;;24.77;54.05
67015;BME280;1033;52.560;13.374;2023-06-22T06:46:20;101487.03;;;25.04;52.72
67015;BME280;1033;52.560;13.374;2023-06-22T06:48:49;101483.91;;;25.26;53.33
67015;BME280;1033;52.560;13.374;2023-06-22T06:51:19;101491.50;;;25.49;51.64
67015;BME280;1033;52.560;13.374;2023-06-22T06:53:50;101485.06;;;25.15;52.29
67015;BME280;1033;52.560;13.374;2023-06-22T06:56:19;101475.81;;;25.35;52.46
67015;BME280;1033;52.560;13.374;2023-06-22T06:58:52;101476.47;;;25.66;51.22
67015;BME280;1033;52.560;13.374;2023-06-22T07:01:21;101470.81;;;25.76;50.53
67015;BME280;1033;52.560;13.374;2023-06-22T07:03:50;101474.88;;;25.49;50.76
67015;BME280;1033;52.560;13.374;2023-06-22T07:06:19;101466.63;;;25.78;49.78
67015;BME280;1033;52.560;13.374;2023-06-22T07:08:48;101468.59;;;25.78;49.50
67015;BME280;1033;52.560;13.374;2023-06-22T07:11:18;101459.16;;;25.79;48.98
67015;BME280;1033;52.560;13.374;2023-06-22T07:13:47;101454.72;;;25.78;48.63
67015;BME280;1033;52.560;13.374;2023-06-22T07:16:17;101454.41;;;26.13;48.21
67015;BME280;1033;52.560;13.374;2023-06-22T07:18:46;101445.25;;;26.42;48.51
67015;BME280;1033;52.560;13.374;2023-06-22T07:21:15;101448.09;;;26.36;47.80
67015;BME280;1033;52.560;13.374;2023-06-22T07:23:45;101444.16;;;26.14;48.47
67015;BME280;1033;52.560;13.374;2023-06-22T07:26:14;101438.28;;;26.15;48.76
67015;BME280;1033;52.560;13.374;2023-06-22T07:28:44;101445.69;;;26.25;48.23
67015;BME280;1033;52.560;13.374;2023-06-22T07:31:13;101440.81;;;26.41;47.05
67015;BME280;1033;52.560;13.374;2023-06-22T07:33:44;101446.59;;;26.15;47.28
67015;BME280;1033;52.560;13.374;2023-06-22T07:36:13;101441.09;;;26.10;48.05
67015;BME280;1033;52.560;13.374;2023-06-22T07:38:42;101437.75;;;26.13;46.47
67015;BME280;1033;52.560;13.374;2023-06-22T07:41:12;101442.72;;;26.16;46.15
67015;BME280;1033;52.560;13.374;2023-06-22T07:43:42;101429.72;;;26.41;45.68
67015;BME280;1033;52.560;13.374;2023-06-22T07:46:11;101436.63;;;26.67;45.57
67015;BME280;1033;52.560;13.374;2023-06-22T07:48:44;101430.56;;;26.83;43.01
67015;BME280;1033;52.560;13.374;2023-06-22T07:51:13;101438.56;;;26.90;42.82
67015;BME280;1033;52.560;13.374;2023-06-22T07:53:43;101442.19;;;27.47;42.01
67015;BME280;1033;52.560;13.374;2023-06-22T07:56:14;101437.97;;;27.12;40.09
67015;BME280;1033;52.560;13.374;2023-06-22T07:58:46;101436.72;;;27.04;40.05
67015;BME280;1033;52.560;13.374;2023-06-22T08:01:16;101429.41;;;26.90;40.42
67015;BME280;1033;52.560;13.374;2023-06-22T08:03:50;101426.28;;;26.49;41.55
67015;BME280;1033;52.560;13.374;2023-06-22T08:06:19;101423.50;;;26.49;42.24
67015;BME280;1033;52.560;13.374;2023-06-22T08:08:48;101430.41;;;26.75;40.76
67015;BME280;1033;52.560;13.374;2023-06-22T08:11:20;101434.44;;;27.06;40.83
67015;BME280;1033;52.560;13.374;2023-06-22T08:13:53;101427.44;;;27.46;39.51
67015;BME280;1033;52.560;13.374;2023-06-22T08:16:23;101433.16;;;27.74;38.49
67015;BME280;1033;52.560;13.374;2023-06-22T08:18:55;101430.22;;;27.65;39.29
67015;BME280;1033;52.560;13.374;2023-06-22T08:21:25;101427.72;;;27.82;38.55
67015;BME280;1033;52.560;13.374;2023-06-22T08:23:54;101434.97;;;27.64;39.42
67015;BME280;1033;52.560;13.374;2023-06-22T08:26:23;101434.09;;;27.69;40.04
67015;BME280;1033;52.560;13.374;2023-06-22T08:28:53;101435.63;;;27.75;39.90
67015;BME280;1033;52.560;13.374;2023-06-22T08:31:23;101427.25;;;27.43;39.78
67015;BME280;1033;52.560;13.374;2023-06-22T08:33:52;101444.44;;;27.26;39.97
67015;BME280;1033;52.560;13.374;2023-06-22T08:36:22;101431.38;;;27.27;40.74
67015;BME280;1033;52.560;13.374;2023-06-22T08:38:51;101433.09;;;27.22;40.68
67015;BME280;1033;52.560;13.374;2023-06-22T08:41:20;101429.28;;;27.18;40.76
67015;BME280;1033;52.560;13.374;2023-06-22T08:43:49;101425.66;;;26.99;41.04
67015;BME280;1033;52.560;13.374;2023-06-22T08:46:19;101428.31;;;27.09;40.64
67015;BME280;1033;52.560;13.374;2023-06-22T08:48:50;101423.94;;;27.03;40.91
67015;BME280;1033;52.560;13.374;2023-06-22T08:51:21;101425.00;;;27.07;41.04
67015;BME280;1033;52.560;13.374;2023-06-22T08:53:50;101434.22;;;27.03;41.12
67015;BME280;1033;52.560;13.374;2023-06-22T08:56:19;101427.13;;;27.15;40.76
67015;BME280;1033;52.560;13.374;2023-06-22T08:58:48;101431.28;;;27.32;40.10
67015;BME280;1033;52.560;13.374;2023-06-22T09:01:20;101434.91;;;27.51;40.25
67015;BME280;1033;52.560;13.374;2023-06-22T09:03:49;101428.69;;;27.59;40.48
67015;BME280;1033;52.560;13.374;2023-06-22T09:06:23;101427.94;;;27.53;40.54
67015;BME280;1033;52.560;13.374;2023-06-22T09:08:53;101421.22;;;27.73;40.62
67015;BME280;1033;52.560;13.374;2023-06-22T09:11:22;101427.66;;;28.01;40.86
67015;BME280;1033;52.560;13.374;2023-06-22T09:13:51;101421.56;;;28.45;40.77
67015;BME280;1033;52.560;13.374;2023-06-22T09:16:21;101418.75;;;29.00;39.73
67015;BME280;1033;52.560;13.374;2023-06-22T09:18:50;101414.88;;;29.23;38.50
67015;BME280;1033;52.560;13.374;2023-06-22T09:21:20;101425.56;;;29.43;38.49
67015;BME280;1033;52.560;13.374;2023-06-22T09:23:50;101429.31;;;28.75;39.13
67015;BME280;1033;52.560;13.374;2023-06-22T09:26:20;101421.75;;;28.21;39.52
67015;BME280;1033;52.560;13.374;2023-06-22T09:28:50;101421.16;;;28.65;39.43
67015;BME280;1033;52.560;13.374;2023-06-22T09:31:19;101411.56;;;28.85;39.23
67015;BME280;1033;52.560;13.374;2023-06-22T09:33:53;101417.44;;;28.83;38.53
67015;BME280;1033;52.560;13.374;2023-06-22T09:36:22;101414.53;;;28.61;39.24
67015;BME280;1033;52.560;13.374;2023-06-22T09:38:53;101412.28;;;28.36;38.78
67015;BME280;1033;52.560;13.374;2023-06-22T09:41:26;101405.59;;;28.37;38.85
67015;BME280;1033;52.560;13.374;2023-06-22T09:43:55;101403.38;;;28.06;39.44
67015;BME280;1033;52.560;13.374;2023-06-22T09:46:24;101396.88;;;27.97;39.88
67015;BME280;1033;52.560;13.374;2023-06-22T09:48:53;101400.63;;;28.34;37.28
67015;BME280;1033;52.560;13.374;2023-06-22T09:51:23;101400.22;;;28.27;37.39
67015;BME280;1033;52.560;13.374;2023-06-22T09:53:54;101404.72;;;28.23;38.85
67015;BME280;1033;52.560;13.374;2023-06-22T09:56:23;101398.13;;;28.19;38.77
67015;BME280;1033;52.560;13.374;2023-06-22T09:58:55;101401.53;;;28.43;39.11
67015;BME280;1033;52.560;13.374;2023-06-22T10:05:54;101408.97;;;28.88;37.83
67015;BME280;1033;52.560;13.374;2023-06-22T10:08:23;101402.72;;;29.05;36.81
67015;BME280;1033;52.560;13.374;2023-06-22T10:10:54;101413.19;;;28.86;37.81
67015;BME280;1033;52.560;13.374;2023-06-22T10:13:24;101406.22;;;29.11;37.07
67015;BME280;1033;52.560;13.374;2023-06-22T10:15:53;101404.63;;;28.82;38.13
67015;BME280;1033;52.560;13.374;2023-06-22T10:18:22;101397.47;;;29.04;37.54
67015;BME280;1033;52.560;13.374;2023-06-22T10:20:51;101408.16;;;28.74;37.99
67015;BME280;1033;52.560;13.374;2023-06-22T10:23:21;101403.09;;;28.76;37.96
67015;BME280;1033;52.560;13.374;2023-06-22T10:25:50;101395.78;;;29.16;37.71
67015;BME280;1033;52.560;13.374;2023-06-22T10:28:20;101395.31;;;29.01;37.56
67015;BME280;1033;52.560;13.374;2023-06-22T10:30:50;101392.06;;;28.71;38.56
67015;BME280;1033;52.560;13.374;2023-06-22T10:33:19;101392.13;;;28.66;38.60
67015;BME280;1033;52.560;13.374;2023-06-22T10:35:48;101391.84;;;28.54;38.73
67015;BME280;1033;52.560;13.374;2023-06-22T10:38:17;101381.63;;;28.63;39.19
67015;BME280;1033;52.560;13.374;2023-06-22T10:40:46;101375.16;;;28.54;39.01
67015;BME280;1033;52.560;13.374;2023-06-22T10:43:15;101376.41;;;28.21;39.75
67015;BME280;1033;52.560;13.374;2023-06-22T10:45:46;101386.22;;;28.32;39.72
67015;BME280;1033;52.560;13.374;2023-06-22T10:48:15;101373.72;;;28.16;39.83
67015;BME280;1033;52.560;13.374;2023-06-22T10:50:44;101374.66;;;28.25;39.80
67015;BME280;1033;52.560;13.374;2023-06-22T10:53:13;101367.97;;;28.26;39.73
67015;BME280;1033;52.560;13.374;2023-06-22T10:55:42;101365.34;;;28.43;39.47
67015;BME280;1033;52.560;13.374;2023-06-22T10:58:23;101364.44;;;28.34;39.00
67015;BME280;1033;52.560;13.374;2023-06-22T11:00:54;101355.72;;;27.81;39.61
67015;BME280;1033;52.560;13.374;2023-06-22T11:03:23;101352.38;;;27.65;39.62
67015;BME280;1033;52.560;13.374;2023-06-22T11:05:52;101355.06;;;27.70;40.05
67015;BME280;1033;52.560;13.374;2023-06-22T11:08:23;101345.13;;;27.96;39.38
67015;BME280;1033;52.560;13.374;2023-06-22T11:10:52;101352.72;;;28.37;39.64
67015;BME280;1033;52.560;13.374;2023-06-22T11:13:21;101343.06;;;28.84;38.91
67015;BME280;1033;52.560;13.374;2023-06-22T11:15:50;101348.41;;;29.16;37.70
67015;BME280;1033;52.560;13.374;2023-06-22T11:18:21;101354.56;;;29.27;38.41
67015;BME280;1033;52.560;13.374;2023-06-22T11:20:50;101346.84;;;29.24;37.34
67015;BME280;1033;52.560;13.374;2023-06-22T11:23:21;101345.16;;;29.01;37.82
67015;BME280;1033;52.560;13.374;2023-06-22T11:25:50;101338.13;;;29.03;37.72
67015;BME280;1033;52.560;13.374;2023-06-22T11:28:19;101328.00;;;29.07;37.33
67015;BME280;1033;52.560;13.374;2023-06-22T11:30:48;101323.19;;;28.99;37.62
67015;BME280;1033;52.560;13.374;2023-06-22T11:33:17;101325.31;;;28.80;37.25
67015;BME280;1033;52.560;13.374;2023-06-22T11:35:48;101319.28;;;28.50;37.91
67015;BME280;1033;52.560;13.374;2023-06-22T11:38:17;101320.72;;;28.48;37.80
67015;BME280;1033;52.560;13.374;2023-06-22T11:40:46;101338.03;;;28.45;38.43
67015;BME280;1033;52.560;13.374;2023-06-22T11:43:16;101338.03;;;28.18;38.13
67015;BME280;1033;52.560;13.374;2023-06-22T11:45:45;101336.19;;;28.54;38.40
67015;BME280;1033;52.560;13.374;2023-06-22T11:48:14;101336.88;;;29.09;37.84
67015;BME280;1033;52.560;13.374;2023-06-22T11:50:43;101336.44;;;29.16;37.59
67015;BME280;1033;52.560;13.374;2023-06-22T11:53:14;101325.44;;;29.33;37.03
67015;BME280;1033;52.560;13.374;2023-06-22T11:55:44;101333.22;;;29.22;37.65
67015;BME280;1033;52.560;13.374;2023-06-22T11:58:15;101326.94;;;29.17;37.60
67015;BME280;1033;52.560;13.374;2023-06-22T12:00:48;101331.88;;;29.64;36.79
67015;BME280;1033;52.560;13.374;2023-06-22T12:03:19;101324.09;;;29.84;36.46
67015;BME280;1033;52.560;13.374;2023-06-22T12:05:50;101320.34;;;29.88;36.39
67015;BME280;1033;52.560;13.374;2023-06-22T12:08:21;101316.38;;;29.80;36.73
67015;BME280;1033;52.560;13.374;2023-06-22T12:10:50;101316.34;;;29.72;36.45
67015;BME280;1033;52.560;13.374;2023-06-22T12:13:21;101312.03;;;29.66;36.87
67015;BME280;1033;52.560;13.374;2023-06-22T12:15:50;101308.97;;;29.76;36.92
67015;BME280;1033;52.560;13.374;2023-06-22T12:18:20;101304.00;;;28.98;37.59
67015;BME280;1033;52.560;13.374;2023-06-22T12:20:49;101302.81;;;28.90;38.03
67015;BME280;1033;52.560;13.374;2023-06-22T12:23:20;101304.38;;;29.49;37.04
67015;BME280;1033;52.560;13.374;2023-06-22T12:25:49;101294.19;;;29.75;36.90
67015;BME280;1033;52.560;13.374;2023-06-22T12:28:18;101295.47;;;29.69;36.87
67015;BME280;1033;52.560;13.374;2023-06-22T12:30:47;101284.69;;;29.76;36.34
67015;BME280;1033;52.560;13.374;2023-06-22T12:33:16;101280.28;;;29.84;36.64
67015;BME280;1033;52.560;13.374;2023-06-22T12:35:46;101273.88;;;29.84;36.16
67015;BME280;1033;52.560;13.374;2023-06-22T12:38:16;101274.47;;;30.11;35.99
67015;BME280;1033;52.560;13.374;2023-06-22T12:40:47;101269.41;;;29.74;36.72
67015;BME280;1033;52.560;13.374;2023-06-22T12:43:17;101275.09;;;29.60;36.62
67015;BME280;1033;52.560;13.374;2023-06-22T12:45:46;101276.50;;;29.27;37.11
67015;BME280;1033;52.560;13.374;2023-06-22T12:48:15;101268.41;;;29.17;38.17
67015;BME280;1033;52.560;13.374;2023-06-22T12:50:45;101268.06;;;29.32;37.41
67015;BME280;1033;52.560;13.374;2023-06-22T12:53:15;101267.50;;;29.30;37.88
67015;BME280;1033;52.560;13.374;2023-06-22T12:55:46;101245.09;;;29.35;37.34
67015;BME280;1033;52.560;13.374;2023-06-22T12:58:15;101251.00;;;29.64;37.32
67015;BME280;1033;52.560;13.374;2023-06-22T13:00:44;101256.94;;;29.41;36.78
67015;BME280;1033;52.560;13.374;2023-06-22T13:03:13;101252.06;;;29.24;37.29
67015;BME280;1033;52.560;13.374;2023-06-22T13:05:43;101237.03;;;29.64;36.89
67015;BME280;1033;52.560;13.374;2023-06-22T13:08:13;101255.81;;;29.72;37.14
67015;BME280;1033;52.560;13.374;2023-06-22T13:10:42;101234.19;;;29.47;37.28